sensor_id;sensor_type;location;lat;lon;timestamp;P1;durP1;ratioP1;P2;durP2;ratioP2
33690;SDS011;20026;50.058;18.428;2023-09-18T00:00:54;17.27;;;11.70;;
33690;SDS011;20026;50.058;18.428;2023-09-18T00:03:23;13.57;;;10.93;;
33690;SDS011;20026;50.058;18.428;2023-09-18T00:05:52;16.98;;;11.13;;
33690;SDS011;20026;50.058;18.428;2023-09-18T00:08:18;20.83;;;14.55;;
33690;SDS011;20026;50.058;18.428;2023-09-18T00:10:48;19.52;;;12.45;;
33690;SDS011;20026;50.058;18.428;2023-09-18T00:13:15;18.88;;;12.70;;
33690;SDS011;20026;50.058;18.428;2023-09-18T00:15:41;21.95;;;13.23;;
33690;SDS011;20026;50.058;18.428;2023-09-18T00:18:09;22.25;;;13.65;;
33690;SDS011;20026;50.058;18.428;2023-09-18T00:20:35;25.52;;;15.55;;
33690;SDS011;20026;50.058;18.428;2023-09-18T00:23:01;27.40;;;16.90;;
33690;SDS011;20026;50.058;18.428;2023-09-18T00:25:27;24.83;;;14.95;;
33690;SDS011;20026;50.058;18.428;2023-09-18T00:27:53;18.35;;;12.20;;
33690;SDS011;20026;50.058;18.428;2023-09-18T00:30:19;19.30;;;12.70;;
33690;SDS011;20026;50.058;18.428;2023-09-18T00:32:45;20.80;;;13.73;;
33690;SDS011;20026;50.058;18.428;2023-09-18T00:35:15;24.10;;;15.00;;
33690;SDS011;20026;50.058;18.428;2023-09-18T00:37:41;27.30;;;16.80;;
33690;SDS011;20026;50.058;18.428;2023-09-18T00:40:08;15.38;;;10.48;;
33690;SDS011;20026;50.058;18.428;2023-09-18T00:42:34;14.80;;;11.18;;
33690;SDS011;20026;50.058;18.428;2023-09-18T00:45:01;23.02;;;15.07;;
33690;SDS011;20026;50.058;18.428;2023-09-18T00:47:27;28.80;;;17.00;;
33690;SDS011;20026;50.058;18.428;2023-09-18T00:49:53;27.33;;;17.17;;
33690;SDS011;20026;50.058;18.428;2023-09-18T00:52:20;21.35;;;14.00;;
33690;SDS011;20026;50.058;18.428;2023-09-18T00:54:47;22.95;;;14.55;;
33690;SDS011;20026;50.058;18.428;2023-09-18T00:57:14;17.50;;;12.90;;
33690;SDS011;20026;50.058;18.428;2023-09-18T00:59:40;25.55;;;15.32;;
33690;SDS011;20026;50.058;18.428;2023-09-18T01:02:06;16.95;;;13.57;;
33690;SDS011;20026;50.058;18.428;2023-09-18T01:04:32;17.83;;;12.48;;
33690;SDS011;20026;50.058;18.428;2023-09-18T01:06:59;18.90;;;12.73;;
33690;SDS011;20026;50.058;18.428;2023-09-18T01:09:28;24.10;;;14.05;;
33690;SDS011;20026;50.058;18.428;2023-09-18T01:11:58;21.95;;;14.48;;
33690;SDS011;20026;50.058;18.428;2023-09-18T01:17:12;21.25;;;15.63;;
33690;SDS011;20026;50.058;18.428;2023-09-18T01:19:40;20.38;;;14.07;;
33690;SDS011;20026;50.058;18.428;2023-09-18T01:22:06;21.33;;;15.20;;
33690;SDS011;20026;50.058;18.428;2023-09-18T01:24:33;19.98;;;14.52;;
33690;SDS011;20026;50.058;18.428;2023-09-18T01:26:59;21.08;;;14.65;;
33690;SDS011;20026;50.058;18.428;2023-09-18T01:29:25;21.58;;;14.70;;
33690;SDS011;20026;50.058;18.428;2023-09-18T01:31:52;22.20;;;16.30;;
33690;SDS011;20026;50.058;18.428;2023-09-18T01:34:28;19.98;;;12.93;;
33690;SDS011;20026;50.058;18.428;2023-09-18T01:36:57;18.77;;;15.18;;
33690;SDS011;20026;50.058;18.428;2023-09-18T01:39:23;14.35;;;12.50;;
33690;SDS011;20026;50.058;18.428;2023-09-18T01:41:52;13.33;;;11.67;;
33690;SDS011;20026;50.058;18.428;2023-09-18T01:44:18;13.38;;;11.07;;
33690;SDS011;20026;50.058;18.428;2023-09-18T01:46:44;13.88;;;11.57;;
33690;SDS011;20026;50.058;18.428;2023-09-18T01:49:10;16.13;;;11.77;;
33690;SDS011;20026;50.058;18.428;2023-09-18T01:51:36;14.70;;;12.20;;
33690;SDS011;20026;50.058;18.428;2023-09-18T01:54:02;13.20;;;11.57;;
33690;SDS011;20026;50.058;18.428;2023-09-18T01:56:28;14.32;;;11.48;;
33690;SDS011;20026;50.058;18.428;2023-09-18T01:58:54;14.07;;;11.63;;
33690;SDS011;20026;50.058;18.428;2023-09-18T02:01:20;14.15;;;11.25;;
33690;SDS011;20026;50.058;18.428;2023-09-18T02:03:46;15.20;;;11.45;;
33690;SDS011;20026;50.058;18.428;2023-09-18T02:06:12;13.85;;;11.98;;
33690;SDS011;20026;50.058;18.428;2023-09-18T02:08:38;12.80;;;11.45;;
33690;SDS011;20026;50.058;18.428;2023-09-18T02:11:04;13.50;;;12.02;;
33690;SDS011;20026;50.058;18.428;2023-09-18T02:13:30;14.40;;;11.10;;
33690;SDS011;20026;50.058;18.428;2023-09-18T02:15:56;13.23;;;11.82;;
33690;SDS011;20026;50.058;18.428;2023-09-18T02:18:22;14.30;;;11.95;;
33690;SDS011;20026;50.058;18.428;2023-09-18T02:20:48;15.73;;;12.38;;
33690;SDS011;20026;50.058;18.428;2023-09-18T02:23:15;13.95;;;12.50;;
33690;SDS011;20026;50.058;18.428;2023-09-18T02:25:41;16.13;;;11.73;;
33690;SDS011;20026;50.058;18.428;2023-09-18T02:28:07;15.52;;;12.68;;
33690;SDS011;20026;50.058;18.428;2023-09-18T02:30:33;17.20;;;12.75;;
33690;SDS011;20026;50.058;18.428;2023-09-18T02:32:59;13.30;;;11.90;;
33690;SDS011;20026;50.058;18.428;2023-09-18T02:35:28;14.73;;;11.65;;
33690;SDS011;20026;50.058;18.428;2023-09-18T02:37:54;12.80;;;11.23;;
33690;SDS011;20026;50.058;18.428;2023-09-18T02:40:20;14.90;;;12.35;;
33690;SDS011;20026;50.058;18.428;2023-09-18T02:42:46;14.93;;;11.88;;
33690;SDS011;20026;50.058;18.428;2023-09-18T02:45:12;15.70;;;12.65;;
33690;SDS011;20026;50.058;18.428;2023-09-18T02:47:38;13.88;;;12.35;;
33690;SDS011;20026;50.058;18.428;2023-09-18T02:50:06;15.32;;;12.00;;
33690;SDS011;20026;50.058;18.428;2023-09-18T02:52:32;19.10;;;15.55;;
33690;SDS011;20026;50.058;18.428;2023-09-18T02:54:58;17.52;;;13.85;;
33690;SDS011;20026;50.058;18.428;2023-09-18T02:57:24;16.00;;;13.07;;
33690;SDS011;20026;50.058;18.428;2023-09-18T02:59:50;15.88;;;13.38;;
33690;SDS011;20026;50.058;18.428;2023-09-18T03:02:16;17.38;;;13.32;;
33690;SDS011;20026;50.058;18.428;2023-09-18T03:04:42;16.98;;;13.68;;
33690;SDS011;20026;50.058;18.428;2023-09-18T03:07:08;17.95;;;13.43;;
33690;SDS011;20026;50.058;18.428;2023-09-18T03:09:34;20.20;;;14.02;;
33690;SDS011;20026;50.058;18.428;2023-09-18T03:12:01;16.63;;;13.68;;
33690;SDS011;20026;50.058;18.428;2023-09-18T03:14:27;24.75;;;13.98;;
33690;SDS011;20026;50.058;18.428;2023-09-18T03:16:53;21.02;;;14.10;;
33690;SDS011;20026;50.058;18.428;2023-09-18T03:19:19;19.85;;;14.15;;
33690;SDS011;20026;50.058;18.428;2023-09-18T03:21:47;16.10;;;13.93;;
33690;SDS011;20026;50.058;18.428;2023-09-18T03:24:13;20.88;;;14.55;;
33690;SDS011;20026;50.058;18.428;2023-09-18T03:26:39;15.40;;;13.77;;
33690;SDS011;20026;50.058;18.428;2023-09-18T03:29:05;21.52;;;13.75;;
33690;SDS011;20026;50.058;18.428;2023-09-18T03:31:31;15.98;;;13.90;;
33690;SDS011;20026;50.058;18.428;2023-09-18T03:33:57;16.90;;;15.18;;
33690;SDS011;20026;50.058;18.428;2023-09-18T03:36:23;18.08;;;14.88;;
33690;SDS011;20026;50.058;18.428;2023-09-18T03:38:49;16.27;;;14.55;;
33690;SDS011;20026;50.058;18.428;2023-09-18T03:41:15;21.17;;;14.60;;
33690;SDS011;20026;50.058;18.428;2023-09-18T03:43:41;20.70;;;16.50;;
33690;SDS011;20026;50.058;18.428;2023-09-18T03:46:07;19.08;;;14.57;;
33690;SDS011;20026;50.058;18.428;2023-09-18T03:48:33;18.23;;;14.63;;
33690;SDS011;20026;50.058;18.428;2023-09-18T03:51:06;20.77;;;14.52;;
33690;SDS011;20026;50.058;18.428;2023-09-18T03:53:33;23.40;;;15.02;;
33690;SDS011;20026;50.058;18.428;2023-09-18T03:55:59;21.27;;;14.82;;
33690;SDS011;20026;50.058;18.428;2023-09-18T03:58:25;17.80;;;14.40;;
33690;SDS011;20026;50.058;18.428;2023-09-18T04:00:52;19.98;;;15.43;;
33690;SDS011;20026;50.058;18.428;2023-09-18T04:03:18;18.40;;;14.27;;
33690;SDS011;20026;50.058;18.428;2023-09-18T04:05:44;20.90;;;15.85;;
33690;SDS011;20026;50.058;18.428;2023-09-18T04:08:10;20.83;;;16.13;;
33690;SDS011;20026;50.058;18.428;2023-09-18T04:10:36;19.35;;;15.88;;
33690;SDS011;20026;50.058;18.428;2023-09-18T04:13:03;18.60;;;15.48;;
33690;SDS011;20026;50.058;18.428;2023-09-18T04:15:29;20.55;;;15.90;;
33690;SDS011;20026;50.058;18.428;2023-09-18T04:17:58;19.67;;;16.05;;
33690;SDS011;20026;50.058;18.428;2023-09-18T04:20:24;19.30;;;16.88;;
33690;SDS011;20026;50.058;18.428;2023-09-18T04:23:17;22.80;;;15.80;;
33690;SDS011;20026;50.058;18.428;2023-09-18T04:25:36;24.08;;;16.95;;
33690;SDS011;20026;50.058;18.428;2023-09-18T04:28:02;17.92;;;16.05;;
33690;SDS011;20026;50.058;18.428;2023-09-18T04:30:28;20.80;;;16.63;;
33690;SDS011;20026;50.058;18.428;2023-09-18T04:32:54;25.13;;;17.15;;
33690;SDS011;20026;50.058;18.428;2023-09-18T04:35:20;25.23;;;17.52;;
33690;SDS011;20026;50.058;18.428;2023-09-18T04:37:50;24.30;;;18.50;;
33690;SDS011;20026;50.058;18.428;2023-09-18T04:40:16;25.02;;;20.05;;
33690;SDS011;20026;50.058;18.428;2023-09-18T04:42:42;28.48;;;19.88;;
33690;SDS011;20026;50.058;18.428;2023-09-18T04:45:08;28.77;;;20.92;;
33690;SDS011;20026;50.058;18.428;2023-09-18T04:47:34;28.40;;;21.63;;
33690;SDS011;20026;50.058;18.428;2023-09-18T04:50:00;26.42;;;20.20;;
33690;SDS011;20026;50.058;18.428;2023-09-18T04:52:30;31.30;;;21.00;;
33690;SDS011;20026;50.058;18.428;2023-09-18T04:54:56;21.50;;;17.88;;
33690;SDS011;20026;50.058;18.428;2023-09-18T04:57:22;22.55;;;17.33;;
33690;SDS011;20026;50.058;18.428;2023-09-18T04:59:48;21.75;;;16.90;;
33690;SDS011;20026;50.058;18.428;2023-09-18T05:02:15;21.50;;;16.98;;
33690;SDS011;20026;50.058;18.428;2023-09-18T05:04:41;23.55;;;16.48;;
33690;SDS011;20026;50.058;18.428;2023-09-18T05:07:07;29.60;;;17.08;;
33690;SDS011;20026;50.058;18.428;2023-09-18T05:09:33;22.20;;;17.20;;
33690;SDS011;20026;50.058;18.428;2023-09-18T05:11:59;18.55;;;15.77;;
33690;SDS011;20026;50.058;18.428;2023-09-18T05:14:26;19.05;;;16.00;;
33690;SDS011;20026;50.058;18.428;2023-09-18T05:16:52;18.33;;;15.13;;
33690;SDS011;20026;50.058;18.428;2023-09-18T05:19:18;18.17;;;15.40;;
33690;SDS011;20026;50.058;18.428;2023-09-18T05:21:44;19.88;;;14.93;;
33690;SDS011;20026;50.058;18.428;2023-09-18T05:24:11;16.98;;;15.02;;
33690;SDS011;20026;50.058;18.428;2023-09-18T05:26:37;16.67;;;14.40;;
33690;SDS011;20026;50.058;18.428;2023-09-18T05:29:03;17.48;;;13.60;;
33690;SDS011;20026;50.058;18.428;2023-09-18T05:31:29;19.42;;;14.48;;
33690;SDS011;20026;50.058;18.428;2023-09-18T05:33:55;15.40;;;13.73;;
33690;SDS011;20026;50.058;18.428;2023-09-18T05:36:21;16.45;;;13.07;;
33690;SDS011;20026;50.058;18.428;2023-09-18T05:38:47;15.32;;;13.10;;
33690;SDS011;20026;50.058;18.428;2023-09-18T05:41:13;14.35;;;12.88;;
33690;SDS011;20026;50.058;18.428;2023-09-18T05:43:40;19.58;;;12.00;;
33690;SDS011;20026;50.058;18.428;2023-09-18T05:46:06;14.52;;;12.70;;
33690;SDS011;20026;50.058;18.428;2023-09-18T05:48:32;20.15;;;12.57;;
33690;SDS011;20026;50.058;18.428;2023-09-18T05:50:58;20.38;;;13.38;;
33690;SDS011;20026;50.058;18.428;2023-09-18T05:53:24;15.90;;;12.55;;
33690;SDS011;20026;50.058;18.428;2023-09-18T05:55:50;14.25;;;12.02;;
33690;SDS011;20026;50.058;18.428;2023-09-18T05:58:16;13.82;;;10.88;;
33690;SDS011;20026;50.058;18.428;2023-09-18T06:00:44;15.95;;;12.50;;
33690;SDS011;20026;50.058;18.428;2023-09-18T06:03:11;17.73;;;12.15;;
33690;SDS011;20026;50.058;18.428;2023-09-18T06:05:37;16.13;;;12.25;;
33690;SDS011;20026;50.058;18.428;2023-09-18T06:08:03;15.85;;;12.18;;
33690;SDS011;20026;50.058;18.428;2023-09-18T06:10:30;15.55;;;12.07;;
33690;SDS011;20026;50.058;18.428;2023-09-18T06:12:56;13.25;;;11.38;;
33690;SDS011;20026;50.058;18.428;2023-09-18T06:15:23;12.63;;;11.32;;
33690;SDS011;20026;50.058;18.428;2023-09-18T06:17:49;14.98;;;13.38;;
33690;SDS011;20026;50.058;18.428;2023-09-18T06:20:15;12.45;;;10.57;;
33690;SDS011;20026;50.058;18.428;2023-09-18T06:22:42;15.05;;;11.07;;
33690;SDS011;20026;50.058;18.428;2023-09-18T06:25:08;12.60;;;10.85;;
33690;SDS011;20026;50.058;18.428;2023-09-18T06:27:38;12.18;;;10.45;;
33690;SDS011;20026;50.058;18.428;2023-09-18T06:30:04;14.00;;;11.13;;
33690;SDS011;20026;50.058;18.428;2023-09-18T06:32:31;13.05;;;11.15;;
33690;SDS011;20026;50.058;18.428;2023-09-18T06:34:57;12.73;;;10.65;;
33690;SDS011;20026;50.058;18.428;2023-09-18T06:37:23;12.60;;;11.20;;
33690;SDS011;20026;50.058;18.428;2023-09-18T06:39:49;12.35;;;10.98;;
33690;SDS011;20026;50.058;18.428;2023-09-18T06:42:16;15.00;;;11.75;;
33690;SDS011;20026;50.058;18.428;2023-09-18T06:44:42;13.80;;;12.13;;
33690;SDS011;20026;50.058;18.428;2023-09-18T06:47:08;15.02;;;11.23;;
33690;SDS011;20026;50.058;18.428;2023-09-18T06:49:34;16.35;;;10.70;;
33690;SDS011;20026;50.058;18.428;2023-09-18T06:52:00;13.85;;;10.77;;
33690;SDS011;20026;50.058;18.428;2023-09-18T06:54:26;12.32;;;10.77;;
33690;SDS011;20026;50.058;18.428;2023-09-18T06:56:52;12.10;;;10.57;;
33690;SDS011;20026;50.058;18.428;2023-09-18T06:59:18;16.70;;;11.18;;
33690;SDS011;20026;50.058;18.428;2023-09-18T07:01:44;11.52;;;10.32;;
33690;SDS011;20026;50.058;18.428;2023-09-18T07:04:10;13.40;;;12.05;;
33690;SDS011;20026;50.058;18.428;2023-09-18T07:06:36;11.98;;;10.65;;
33690;SDS011;20026;50.058;18.428;2023-09-18T07:09:02;15.68;;;10.88;;
33690;SDS011;20026;50.058;18.428;2023-09-18T07:11:30;13.30;;;11.50;;
33690;SDS011;20026;50.058;18.428;2023-09-18T07:13:56;11.73;;;10.02;;
33690;SDS011;20026;50.058;18.428;2023-09-18T07:16:22;16.30;;;11.68;;
33690;SDS011;20026;50.058;18.428;2023-09-18T07:18:48;12.90;;;11.48;;
33690;SDS011;20026;50.058;18.428;2023-09-18T07:21:13;12.35;;;10.63;;
33690;SDS011;20026;50.058;18.428;2023-09-18T07:23:40;12.30;;;10.90;;
33690;SDS011;20026;50.058;18.428;2023-09-18T07:26:06;12.45;;;10.90;;
33690;SDS011;20026;50.058;18.428;2023-09-18T07:28:32;12.30;;;11.05;;
33690;SDS011;20026;50.058;18.428;2023-09-18T07:31:04;16.70;;;11.75;;
33690;SDS011;20026;50.058;18.428;2023-09-18T07:33:30;11.55;;;10.45;;
33690;SDS011;20026;50.058;18.428;2023-09-18T07:35:56;13.20;;;10.57;;
33690;SDS011;20026;50.058;18.428;2023-09-18T07:38:22;12.50;;;10.90;;
33690;SDS011;20026;50.058;18.428;2023-09-18T07:40:50;15.52;;;13.43;;
33690;SDS011;20026;50.058;18.428;2023-09-18T07:43:16;12.45;;;11.30;;
33690;SDS011;20026;50.058;18.428;2023-09-18T07:45:42;17.63;;;11.68;;
33690;SDS011;20026;50.058;18.428;2023-09-18T07:48:08;14.77;;;11.07;;
33690;SDS011;20026;50.058;18.428;2023-09-18T07:50:34;13.13;;;11.00;;
33690;SDS011;20026;50.058;18.428;2023-09-18T07:53:00;12.13;;;10.60;;
33690;SDS011;20026;50.058;18.428;2023-09-18T07:55:26;15.10;;;11.93;;
33690;SDS011;20026;50.058;18.428;2023-09-18T07:57:52;16.40;;;11.80;;
33690;SDS011;20026;50.058;18.428;2023-09-18T08:00:19;12.65;;;11.45;;
33690;SDS011;20026;50.058;18.428;2023-09-18T08:02:47;12.17;;;11.00;;
33690;SDS011;20026;50.058;18.428;2023-09-18T08:05:15;12.73;;;11.43;;
33690;SDS011;20026;50.058;18.428;2023-09-18T08:07:41;12.27;;;11.13;;
33690;SDS011;20026;50.058;18.428;2023-09-18T08:10:07;13.00;;;11.50;;
33690;SDS011;20026;50.058;18.428;2023-09-18T08:12:33;13.70;;;11.25;;
33690;SDS011;20026;50.058;18.428;2023-09-18T08:15:00;12.43;;;11.23;;
33690;SDS011;20026;50.058;18.428;2023-09-18T08:17:26;13.68;;;12.27;;
33690;SDS011;20026;50.058;18.428;2023-09-18T08:19:52;13.38;;;11.43;;
33690;SDS011;20026;50.058;18.428;2023-09-18T08:22:19;15.40;;;12.82;;
33690;SDS011;20026;50.058;18.428;2023-09-18T08:24:48;14.63;;;11.35;;
33690;SDS011;20026;50.058;18.428;2023-09-18T08:27:17;13.10;;;11.73;;
33690;SDS011;20026;50.058;18.428;2023-09-18T08:29:47;13.55;;;11.07;;
33690;SDS011;20026;50.058;18.428;2023-09-18T08:32:13;13.55;;;11.10;;
33690;SDS011;20026;50.058;18.428;2023-09-18T08:34:39;11.02;;;10.02;;
33690;SDS011;20026;50.058;18.428;2023-09-18T08:37:05;11.15;;;10.10;;
33690;SDS011;20026;50.058;18.428;2023-09-18T08:39:31;12.00;;;10.65;;
33690;SDS011;20026;50.058;18.428;2023-09-18T08:41:59;15.68;;;10.88;;
33690;SDS011;20026;50.058;18.428;2023-09-18T08:44:26;11.20;;;10.25;;
33690;SDS011;20026;50.058;18.428;2023-09-18T08:46:53;15.20;;;11.15;;
33690;SDS011;20026;50.058;18.428;2023-09-18T08:49:20;12.27;;;11.00;;
33690;SDS011;20026;50.058;18.428;2023-09-18T08:51:47;12.45;;;11.15;;
33690;SDS011;20026;50.058;18.428;2023-09-18T08:54:13;12.80;;;11.48;;
33690;SDS011;20026;50.058;18.428;2023-09-18T08:56:39;12.10;;;10.85;;
33690;SDS011;20026;50.058;18.428;2023-09-18T08:59:05;12.05;;;10.40;;
33690;SDS011;20026;50.058;18.428;2023-09-18T09:01:31;13.10;;;10.82;;
33690;SDS011;20026;50.058;18.428;2023-09-18T09:03:57;16.33;;;10.77;;
33690;SDS011;20026;50.058;18.428;2023-09-18T09:06:25;13.25;;;10.95;;
33690;SDS011;20026;50.058;18.428;2023-09-18T09:08:51;11.95;;;10.75;;
33690;SDS011;20026;50.058;18.428;2023-09-18T09:11:17;13.43;;;11.48;;
33690;SDS011;20026;50.058;18.428;2023-09-18T09:13:44;11.18;;;9.98;;
33690;SDS011;20026;50.058;18.428;2023-09-18T09:16:11;13.20;;;10.65;;
33690;SDS011;20026;50.058;18.428;2023-09-18T09:18:45;11.95;;;10.75;;
33690;SDS011;20026;50.058;18.428;2023-09-18T09:21:12;12.57;;;11.02;;
33690;SDS011;20026;50.058;18.428;2023-09-18T09:23:45;11.50;;;10.48;;
33690;SDS011;20026;50.058;18.428;2023-09-18T09:26:15;11.93;;;10.77;;
33690;SDS011;20026;50.058;18.428;2023-09-18T09:28:45;12.38;;;11.10;;
33690;SDS011;20026;50.058;18.428;2023-09-18T09:31:11;12.15;;;10.82;;
33690;SDS011;20026;50.058;18.428;2023-09-18T09:33:39;12.25;;;11.13;;
33690;SDS011;20026;50.058;18.428;2023-09-18T09:36:17;11.47;;;10.47;;
33690;SDS011;20026;50.058;18.428;2023-09-18T09:38:43;11.52;;;10.52;;
33690;SDS011;20026;50.058;18.428;2023-09-18T09:41:13;10.88;;;9.93;;
33690;SDS011;20026;50.058;18.428;2023-09-18T09:43:41;11.40;;;10.20;;
33690;SDS011;20026;50.058;18.428;2023-09-18T09:46:08;11.40;;;10.40;;
33690;SDS011;20026;50.058;18.428;2023-09-18T09:48:43;12.45;;;11.07;;
33690;SDS011;20026;50.058;18.428;2023-09-18T09:51:24;11.90;;;10.70;;
33690;SDS011;20026;50.058;18.428;2023-09-18T09:53:50;13.93;;;11.25;;
33690;SDS011;20026;50.058;18.428;2023-09-18T09:56:16;11.98;;;10.88;;
33690;SDS011;20026;50.058;18.428;2023-09-18T09:59:08;10.90;;;9.90;;
33690;SDS011;20026;50.058;18.428;2023-09-18T10:01:33;11.20;;;10.20;;
33690;SDS011;20026;50.058;18.428;2023-09-18T10:03:59;13.05;;;11.57;;
33690;SDS011;20026;50.058;18.428;2023-09-18T10:06:30;10.80;;;9.80;;
33690;SDS011;20026;50.058;18.428;2023-09-18T10:08:59;11.05;;;9.73;;
33690;SDS011;20026;50.058;18.428;2023-09-18T10:11:25;10.95;;;9.85;;
33690;SDS011;20026;50.058;18.428;2023-09-18T10:14:04;11.98;;;10.40;;
33690;SDS011;20026;50.058;18.428;2023-09-18T10:16:32;10.13;;;9.15;;
33690;SDS011;20026;50.058;18.428;2023-09-18T10:22:00;10.98;;;9.88;;
33690;SDS011;20026;50.058;18.428;2023-09-18T10:24:32;9.73;;;8.82;;
33690;SDS011;20026;50.058;18.428;2023-09-18T10:26:59;10.40;;;9.40;;
33690;SDS011;20026;50.058;18.428;2023-09-18T10:29:28;11.30;;;9.15;;
33690;SDS011;20026;50.058;18.428;2023-09-18T10:31:55;10.18;;;9.25;;
33690;SDS011;20026;50.058;18.428;2023-09-18T10:34:22;11.13;;;8.75;;
33690;SDS011;20026;50.058;18.428;2023-09-18T10:36:49;10.13;;;9.13;;
33690;SDS011;20026;50.058;18.428;2023-09-18T10:39:15;9.55;;;8.68;;
33690;SDS011;20026;50.058;18.428;2023-09-18T10:44:11;10.52;;;9.45;;
33690;SDS011;20026;50.058;18.428;2023-09-18T10:46:37;11.38;;;9.00;;
33690;SDS011;20026;50.058;18.428;2023-09-18T10:49:03;9.95;;;8.90;;
33690;SDS011;20026;50.058;18.428;2023-09-18T10:51:29;11.85;;;8.77;;
33690;SDS011;20026;50.058;18.428;2023-09-18T10:56:25;10.32;;;9.43;;
33690;SDS011;20026;50.058;18.428;2023-09-18T10:59:01;10.13;;;8.63;;
33690;SDS011;20026;50.058;18.428;2023-09-18T11:01:29;12.13;;;8.95;;
33690;SDS011;20026;50.058;18.428;2023-09-18T11:04:02;10.85;;;8.55;;
33690;SDS011;20026;50.058;18.428;2023-09-18T11:06:28;10.23;;;9.23;;
33690;SDS011;20026;50.058;18.428;2023-09-18T11:09:07;11.77;;;9.55;;
33690;SDS011;20026;50.058;18.428;2023-09-18T11:11:34;9.73;;;8.73;;
33690;SDS011;20026;50.058;18.428;2023-09-18T11:14:00;10.65;;;9.65;;
33690;SDS011;20026;50.058;18.428;2023-09-18T11:21:25;11.05;;;10.05;;
33690;SDS011;20026;50.058;18.428;2023-09-18T11:23:58;10.77;;;9.68;;
33690;SDS011;20026;50.058;18.428;2023-09-18T11:26:27;9.45;;;8.57;;
33690;SDS011;20026;50.058;18.428;2023-09-18T11:28:54;9.43;;;8.50;;
33690;SDS011;20026;50.058;18.428;2023-09-18T11:31:20;9.85;;;8.93;;
33690;SDS011;20026;50.058;18.428;2023-09-18T11:33:47;9.98;;;9.02;;
33690;SDS011;20026;50.058;18.428;2023-09-18T11:38:55;9.65;;;8.63;;
33690;SDS011;20026;50.058;18.428;2023-09-18T11:41:28;10.30;;;8.15;;
33690;SDS011;20026;50.058;18.428;2023-09-18T11:46:33;8.77;;;7.87;;
33690;SDS011;20026;50.058;18.428;2023-09-18T11:49:00;10.38;;;9.35;;
33690;SDS011;20026;50.058;18.428;2023-09-18T11:51:30;10.35;;;8.85;;
33690;SDS011;20026;50.058;18.428;2023-09-18T11:53:56;10.73;;;8.68;;
33690;SDS011;20026;50.058;18.428;2023-09-18T11:56:23;9.30;;;8.32;;
33690;SDS011;20026;50.058;18.428;2023-09-18T11:58:50;9.38;;;8.52;;
33690;SDS011;20026;50.058;18.428;2023-09-18T12:01:17;10.73;;;9.55;;
33690;SDS011;20026;50.058;18.428;2023-09-18T12:03:44;10.85;;;8.88;;
33690;SDS011;20026;50.058;18.428;2023-09-18T12:06:12;9.60;;;8.48;;
33690;SDS011;20026;50.058;18.428;2023-09-18T12:08:39;9.95;;;9.05;;
33690;SDS011;20026;50.058;18.428;2023-09-18T12:11:05;9.40;;;7.82;;
33690;SDS011;20026;50.058;18.428;2023-09-18T12:13:31;9.38;;;8.40;;
33690;SDS011;20026;50.058;18.428;2023-09-18T12:18:24;10.63;;;8.30;;
33690;SDS011;20026;50.058;18.428;2023-09-18T12:20:50;11.93;;;9.40;;
33690;SDS011;20026;50.058;18.428;2023-09-18T12:23:17;10.55;;;8.63;;
33690;SDS011;20026;50.058;18.428;2023-09-18T12:25:46;9.88;;;8.65;;
33690;SDS011;20026;50.058;18.428;2023-09-18T12:28:13;9.93;;;8.25;;
33690;SDS011;20026;50.058;18.428;2023-09-18T12:33:09;9.32;;;8.02;;
33690;SDS011;20026;50.058;18.428;2023-09-18T12:35:36;10.13;;;8.50;;
33690;SDS011;20026;50.058;18.428;2023-09-18T12:38:03;9.30;;;8.50;;
33690;SDS011;20026;50.058;18.428;2023-09-18T12:40:39;11.80;;;7.97;;
33690;SDS011;20026;50.058;18.428;2023-09-18T12:43:05;9.90;;;8.55;;
33690;SDS011;20026;50.058;18.428;2023-09-18T12:45:31;9.40;;;8.10;;
33690;SDS011;20026;50.058;18.428;2023-09-18T12:47:57;8.52;;;7.72;;
33690;SDS011;20026;50.058;18.428;2023-09-18T12:50:24;12.30;;;8.15;;
33690;SDS011;20026;50.058;18.428;2023-09-18T12:52:50;10.50;;;8.30;;
33690;SDS011;20026;50.058;18.428;2023-09-18T12:55:26;9.77;;;8.32;;
33690;SDS011;20026;50.058;18.428;2023-09-18T12:57:53;8.75;;;7.88;;
33690;SDS011;20026;50.058;18.428;2023-09-18T13:00:19;9.65;;;7.18;;
33690;SDS011;20026;50.058;18.428;2023-09-18T13:02:48;10.38;;;7.80;;
33690;SDS011;20026;50.058;18.428;2023-09-18T13:05:20;9.32;;;8.10;;
33690;SDS011;20026;50.058;18.428;2023-09-18T13:07:46;8.73;;;7.95;;
33690;SDS011;20026;50.058;18.428;2023-09-18T13:10:12;10.55;;;8.23;;
33690;SDS011;20026;50.058;18.428;2023-09-18T13:12:45;9.52;;;7.85;;
33690;SDS011;20026;50.058;18.428;2023-09-18T13:15:11;9.50;;;8.27;;
33690;SDS011;20026;50.058;18.428;2023-09-18T13:17:42;9.80;;;8.77;;
33690;SDS011;20026;50.058;18.428;2023-09-18T13:22:40;9.80;;;7.20;;
33690;SDS011;20026;50.058;18.428;2023-09-18T13:25:09;10.43;;;8.48;;
33690;SDS011;20026;50.058;18.428;2023-09-18T13:27:38;8.60;;;7.63;;
33690;SDS011;20026;50.058;18.428;2023-09-18T13:30:05;14.90;;;8.15;;
33690;SDS011;20026;50.058;18.428;2023-09-18T13:32:33;8.15;;;7.30;;
33690;SDS011;20026;50.058;18.428;2023-09-18T13:34:59;8.57;;;7.40;;
33690;SDS011;20026;50.058;18.428;2023-09-18T13:37:25;8.40;;;7.05;;
33690;SDS011;20026;50.058;18.428;2023-09-18T13:39:54;10.13;;;7.30;;
33690;SDS011;20026;50.058;18.428;2023-09-18T13:42:20;7.35;;;6.75;;
33690;SDS011;20026;50.058;18.428;2023-09-18T13:44:46;10.48;;;9.23;;
33690;SDS011;20026;50.058;18.428;2023-09-18T13:47:12;7.32;;;6.60;;
33690;SDS011;20026;50.058;18.428;2023-09-18T13:49:38;7.65;;;6.95;;
33690;SDS011;20026;50.058;18.428;2023-09-18T13:52:04;7.18;;;6.55;;
33690;SDS011;20026;50.058;18.428;2023-09-18T13:54:30;8.75;;;6.85;;
33690;SDS011;20026;50.058;18.428;2023-09-18T13:56:56;7.63;;;6.90;;
33690;SDS011;20026;50.058;18.428;2023-09-18T13:59:22;8.05;;;7.20;;
33690;SDS011;20026;50.058;18.428;2023-09-18T14:01:48;8.32;;;7.53;;
33690;SDS011;20026;50.058;18.428;2023-09-18T14:04:14;8.35;;;7.65;;
33690;SDS011;20026;50.058;18.428;2023-09-18T14:06:40;9.68;;;7.63;;
33690;SDS011;20026;50.058;18.428;2023-09-18T14:09:07;8.70;;;7.65;;
33690;SDS011;20026;50.058;18.428;2023-09-18T14:11:35;10.20;;;7.47;;
33690;SDS011;20026;50.058;18.428;2023-09-18T14:14:03;9.70;;;7.00;;
33690;SDS011;20026;50.058;18.428;2023-09-18T14:16:29;8.98;;;6.88;;
33690;SDS011;20026;50.058;18.428;2023-09-18T14:18:58;8.05;;;7.03;;
33690;SDS011;20026;50.058;18.428;2023-09-18T14:21:24;8.55;;;7.57;;
33690;SDS011;20026;50.058;18.428;2023-09-18T14:23:53;10.52;;;9.43;;
33690;SDS011;20026;50.058;18.428;2023-09-18T14:26:19;10.07;;;7.57;;
33690;SDS011;20026;50.058;18.428;2023-09-18T14:28:45;8.68;;;7.75;;
33690;SDS011;20026;50.058;18.428;2023-09-18T14:31:12;19.60;;;14.77;;
33690;SDS011;20026;50.058;18.428;2023-09-18T14:33:37;26.20;;;18.45;;
33690;SDS011;20026;50.058;18.428;2023-09-18T14:36:05;32.30;;;20.50;;
33690;SDS011;20026;50.058;18.428;2023-09-18T14:38:31;33.30;;;17.83;;
33690;SDS011;20026;50.058;18.428;2023-09-18T14:40:57;18.35;;;10.18;;